Aérodrome :
LOGIN :

S'inscrire | Disclaimer

   EN    FR    IT 

 










Légende :    VFR   VFR Marginal   IFR   IFR Intensif   IFR Très Intensif
Visi : 
Plafond : 
>= 8 km
>= 3000ft
5 à 8 km
1000 à 3000 ft
1500m à 5 km
500 à 1000 ft
800 à 1500m
200 à 500 ft
< 800m
< 200 ft
Symboles :   Orages  Brouillard  Fortes neiges  Fortes précipitations  Vent > 20 kt
SIGMETs :   Divers  Orages  Givrage  Turbulence  Onde Orograph.  Cendres Volcan.






- Altitude de l'aérodrome : 19 ft
- Code IATA : VAA


EFVA - Vaasa

DERNIER METAR :
  • 171750Z AUTO 21020G30KT 9999 OVC039 05/01 Q0975

METARs EXPIRÉS :
  • 171720Z AUTO 21015KT 9999 OVC041 05/01 Q0975
  • 171650Z AUTO 22016KT 9999 OVC046 05/01 Q0975
  • 171620Z AUTO 21015KT 9999 OVC045 05/01 Q0975
  • 171550Z AUTO 20013KT 9999 OVC044 05/01 Q0975
  • 171520Z AUTO 20012KT 9999 OVC043 05/00 Q0975

TAF TAF EFVA
Valide du 17 à 18h jusqu'au 18 à 18h UTC


171727Z 1718/1818 23015KT 9999 BKN040
TEMPO 1718/1720 21015G30KT
TEMPO 1720/1801 21015G27KT 7000 BKN012



MET'MAP, la Météo Aéronautique d'un coup d'oeil ! - Copyright ORBIFLY Décembre 2007 - Disclaimer

ORBIFLY MET'MAP TEAM :

Programmation & Développement : Alexandra Zaïnal
Sur une idée originale de : Baudouin d'Aumeries
Assistance à la programmation : Marc-Olivier Méhu
Soutien technique & logistique : Manuel Goepfert

Contact : metmap@orbifly.com




SOURCES & CREDITS :

   NOAA